Itapevi, Brazil
Current Conditions -  °F | °C
As of 8:00 AM on Tuesday 21 Oct 2014 (Local Time) from SBSP Reporting Station
Overcast Overcast  
Wind Chill: 61°   Ceiling: 1000
Heat Index: 61°   Visibility: 6mi
Dew Point: 54°   Wind: 14mph
Humidity: 77%   Direction: 150°SSE
Pressure: 30.18"   Gusts: NA
Location:  23.55°S, 46.93°W
Report Text: SBSP 211000Z 15012KT 9999 BKN010 OVC020 16/12 Q1022
Loading
Personal Weather Stations






























Interactive Weather Map
Tropical Storm Tracking
New forecast layout! Learn more

10-Day Weather Forecast

Advertisements
Track Severe Weather on mobile